createdAt,value
2017-07-24T00:00:19.003Z,67
2017-07-24T00:01:21.060Z,67
2017-07-24T00:02:23.105Z,67.1
2017-07-24T00:03:25.154Z,67.1
2017-07-24T00:04:27.214Z,67.1
2017-07-24T00:05:29.603Z,67.1
2017-07-24T00:06:31.983Z,67.1
2017-07-24T00:07:34.042Z,67.2
2017-07-24T00:08:36.095Z,67.1
2017-07-24T00:09:38.144Z,67.2
2017-07-24T00:10:40.189Z,67.1
2017-07-24T00:11:42.567Z,67.1
2017-07-24T00:12:44.956Z,67.2
2017-07-24T00:13:47.014Z,67.1
2017-07-24T00:14:49.396Z,67.1
2017-07-24T00:15:51.443Z,67
2017-07-24T00:16:53.481Z,67
2017-07-24T00:17:55.529Z,67
2017-07-24T00:18:57.568Z,67
2017-07-24T00:19:59.618Z,67.1
2017-07-24T00:21:01.682Z,67.1
2017-07-24T00:22:03.735Z,67.1
2017-07-24T00:23:06.124Z,67.2
2017-07-24T00:24:08.176Z,67.1
2017-07-24T00:25:10.228Z,67.1
2017-07-24T00:26:12.304Z,67.2
2017-07-24T00:27:14.355Z,67.3
2017-07-24T00:28:16.417Z,67.2
2017-07-24T00:29:18.481Z,67.1
2017-07-24T00:30:20.531Z,67.1
2017-07-24T00:31:22.578Z,67.3
2017-07-24T00:32:24.620Z,67.2
2017-07-24T00:33:26.679Z,67.2
2017-07-24T00:34:28.725Z,67.2
2017-07-24T00:35:30.765Z,67.3
2017-07-24T00:36:33.154Z,67.4
2017-07-24T00:37:35.208Z,67.4
2017-07-24T00:38:37.259Z,67.4
2017-07-24T00:39:39.306Z,67.4
2017-07-24T00:40:41.720Z,67.5
2017-07-24T00:41:44.122Z,67.5
2017-07-24T00:42:46.509Z,67.5
2017-07-24T00:43:48.896Z,67.5
2017-07-24T00:44:50.940Z,67.5
2017-07-24T00:45:53.002Z,67.5
2017-07-24T00:46:55.047Z,67.4
2017-07-24T00:47:57.420Z,67.4
2017-07-24T00:48:59.476Z,67.4
2017-07-24T00:50:01.530Z,67.4
2017-07-24T00:51:04.590Z,67.5
2017-07-24T00:52:06.643Z,67.5
2017-07-24T00:53:08.692Z,67.5
2017-07-24T00:54:11.081Z,67.5
2017-07-24T00:55:13.810Z,67.5
2017-07-24T00:56:15.883Z,67.6
2017-07-24T00:57:17.923Z,67.7
2017-07-24T00:58:20.644Z,67.7
2017-07-24T00:59:23.026Z,67.6
2017-07-24T01:00:25.433Z,67.6
2017-07-24T01:01:27.842Z,67.6
2017-07-24T01:02:30.250Z,67.6
2017-07-24T01:03:32.293Z,67.6
2017-07-24T01:04:34.674Z,67.6
2017-07-24T01:05:36.741Z,67.5
2017-07-24T01:06:39.119Z,67.5
2017-07-24T01:07:41.510Z,67.6
2017-07-24T01:08:43.561Z,67.5
2017-07-24T01:09:45.606Z,67.6
2017-07-24T01:10:47.989Z,67.6
2017-07-24T01:11:50.719Z,67.6
2017-07-24T01:12:52.777Z,67.6
2017-07-24T01:13:54.822Z,67.6
2017-07-24T01:14:56.860Z,67.7
2017-07-24T01:15:58.911Z,67.5
2017-07-24T01:17:01.298Z,67.5
2017-07-24T01:18:03.721Z,67.6
2017-07-24T01:19:05.779Z,67.5
2017-07-24T01:20:07.831Z,67.6
2017-07-24T01:21:09.881Z,67.5
2017-07-24T01:22:12.269Z,67.5
2017-07-24T01:23:14.323Z,67.5
2017-07-24T01:24:16.712Z,67.6
2017-07-24T01:25:18.760Z,67.4
2017-07-24T01:26:20.812Z,67.5
2017-07-24T01:27:22.872Z,67.5
2017-07-24T01:28:24.930Z,67.5
2017-07-24T01:29:26.980Z,67.5
2017-07-24T01:30:29.029Z,67.4
2017-07-24T01:31:31.073Z,67.5
2017-07-24T01:32:33.120Z,67.4
2017-07-24T01:33:35.168Z,67.5
2017-07-24T01:34:37.551Z,67.5
2017-07-24T01:35:39.596Z,67.6
2017-07-24T01:36:41.993Z,67.6
2017-07-24T01:37:44.707Z,67.6
2017-07-24T01:38:47.092Z,67.6
2017-07-24T01:39:49.484Z,67.6
2017-07-24T01:40:51.555Z,67.6
2017-07-24T01:41:53.599Z,67.6
2017-07-24T01:42:55.645Z,67.6
2017-07-24T01:43:57.700Z,67.6
2017-07-24T01:44:59.753Z,67.5
2017-07-24T01:46:02.142Z,67.6
2017-07-24T01:47:05.203Z,67.6
2017-07-24T01:48:07.232Z,67.6
2017-07-24T01:49:09.625Z,67.6
2017-07-24T01:50:11.672Z,67.6
2017-07-24T01:51:13.718Z,67.6
2017-07-24T01:52:15.767Z,67.8
2017-07-24T01:53:17.821Z,67.7
2017-07-24T01:54:19.868Z,67.8
2017-07-24T01:55:21.916Z,67.8
2017-07-24T01:56:23.962Z,67.9
2017-07-24T01:57:26.056Z,67.9
2017-07-24T01:58:28.438Z,67.9
2017-07-24T01:59:30.833Z,67.9
2017-07-24T02:00:32.889Z,67.9
2017-07-24T02:01:34.941Z,67.9
2017-07-24T02:02:37.322Z,67.9
2017-07-24T02:03:39.370Z,67.8
2017-07-24T02:04:41.766Z,67.9
2017-07-24T02:05:44.150Z,67.9
2017-07-24T02:06:46.182Z,67.9
2017-07-24T02:07:48.222Z,67.9
2017-07-24T02:08:50.278Z,67.8
2017-07-24T02:09:52.644Z,68
2017-07-24T02:10:54.708Z,67.9
2017-07-24T02:11:57.124Z,67.9
2017-07-24T02:12:59.165Z,67.9
2017-07-24T02:14:01.214Z,67.9
2017-07-24T02:15:03.597Z,67.9
2017-07-24T02:16:06.664Z,68
2017-07-24T02:17:08.724Z,68
2017-07-24T02:18:11.109Z,68
2017-07-24T02:19:13.484Z,68
2017-07-24T02:20:15.866Z,68
2017-07-24T02:21:17.925Z,68.1
2017-07-24T02:22:19.977Z,68
2017-07-24T02:23:22.354Z,68
2017-07-24T02:24:24.393Z,68
2017-07-24T02:25:27.141Z,68.1
2017-07-24T02:26:29.208Z,68.1
2017-07-24T02:27:31.587Z,68.1
2017-07-24T02:28:33.642Z,68.1
2017-07-24T02:29:35.693Z,68.1
2017-07-24T02:30:37.733Z,68.1
2017-07-24T02:31:40.139Z,68.2
2017-07-24T02:32:42.525Z,68.1
2017-07-24T02:33:44.568Z,68.1
2017-07-24T02:34:46.617Z,68.1
2017-07-24T02:35:48.665Z,68.1
2017-07-24T02:36:50.722Z,68
2017-07-24T02:37:52.766Z,67.9
2017-07-24T02:38:55.155Z,67.9
2017-07-24T02:39:57.547Z,68.1
2017-07-24T02:40:59.945Z,68
2017-07-24T02:42:02.337Z,68.1
2017-07-24T02:43:05.077Z,68.2
2017-07-24T02:44:08.148Z,68.2
2017-07-24T02:45:10.572Z,68.2
2017-07-24T02:46:12.622Z,68.2
2017-07-24T02:47:15.016Z,68.3
2017-07-24T02:48:17.401Z,68.3
2017-07-24T02:49:19.446Z,68.3
2017-07-24T02:50:21.846Z,68.4
2017-07-24T02:51:24.251Z,68.3
2017-07-24T02:52:26.317Z,68.4
2017-07-24T02:53:28.354Z,68.4
2017-07-24T02:54:30.396Z,68.4
2017-07-24T02:55:32.790Z,68.4
2017-07-24T02:56:35.522Z,68.5
2017-07-24T02:57:37.911Z,68.4
2017-07-24T02:58:40.298Z,68.5
2017-07-24T02:59:42.342Z,68.4
2017-07-24T03:00:44.736Z,68.3
2017-07-24T03:01:46.795Z,68.3
2017-07-24T03:02:48.843Z,68.5
2017-07-24T03:03:51.222Z,68.4
2017-07-24T03:04:53.607Z,68.5
2017-07-24T03:05:56.330Z,68.5
2017-07-24T03:06:58.380Z,68.5
2017-07-24T03:08:00.418Z,68.4
2017-07-24T03:09:02.477Z,68.4
2017-07-24T03:10:04.527Z,68.4
2017-07-24T03:11:06.559Z,68.5
2017-07-24T03:12:08.608Z,68.5
2017-07-24T03:13:11.019Z,68.5
2017-07-24T03:14:13.069Z,68.5
2017-07-24T03:15:15.119Z,68.5
2017-07-24T03:16:17.842Z,68.5
2017-07-24T03:17:19.903Z,68.6
2017-07-24T03:18:21.944Z,68.5
2017-07-24T03:19:24.344Z,68.5
2017-07-24T03:20:27.059Z,68.6
2017-07-24T03:21:29.108Z,68.5
2017-07-24T03:22:31.172Z,68.6
2017-07-24T03:23:33.205Z,68.6
2017-07-24T03:24:35.258Z,68.5
2017-07-24T03:25:37.315Z,68.6
2017-07-24T03:26:39.357Z,68.6
2017-07-24T03:27:41.419Z,68.5
2017-07-24T03:28:43.806Z,68.5
2017-07-24T03:29:46.190Z,68.6
2017-07-24T03:30:48.253Z,68.6
2017-07-24T03:31:50.314Z,68.5
2017-07-24T03:32:52.371Z,68.5
2017-07-24T03:33:54.759Z,68.4
2017-07-24T03:34:56.793Z,68.3
2017-07-24T03:35:58.860Z,68.5
2017-07-24T03:37:01.264Z,68.3
2017-07-24T03:38:03.314Z,68.4
2017-07-24T03:39:05.357Z,68.4
2017-07-24T03:40:07.775Z,68.4
2017-07-24T03:41:09.825Z,68.6
2017-07-24T03:42:11.877Z,68.5
2017-07-24T03:43:14.265Z,68.5
2017-07-24T03:44:16.335Z,68.5
2017-07-24T03:45:18.736Z,68.4
2017-07-24T03:46:20.777Z,68.5
2017-07-24T03:47:22.838Z,68.5
2017-07-24T03:48:24.890Z,68.6
2017-07-24T03:49:26.949Z,68.5
2017-07-24T03:50:29.680Z,68.7
2017-07-24T03:51:31.730Z,68.6
2017-07-24T03:52:33.784Z,68.6
2017-07-24T03:53:35.845Z,68.6
2017-07-24T03:54:37.891Z,68.6
2017-07-24T03:55:39.935Z,68.6
2017-07-24T03:56:41.994Z,68.5
2017-07-24T03:57:44.375Z,68.6
2017-07-24T03:58:46.750Z,68.6
2017-07-24T03:59:49.150Z,68.7
2017-07-24T04:00:51.535Z,68.7
2017-07-24T04:01:54.600Z,68.7
2017-07-24T04:02:57.014Z,68.7
2017-07-24T04:03:59.075Z,68.6
2017-07-24T04:05:01.802Z,68.6
2017-07-24T04:06:03.841Z,68.6
2017-07-24T04:07:06.584Z,68.5
2017-07-24T04:08:08.644Z,68.5
2017-07-24T04:09:10.698Z,68.5
2017-07-24T04:10:13.088Z,68.5
2017-07-24T04:11:15.480Z,68.5
2017-07-24T04:12:17.549Z,68.4
2017-07-24T04:13:19.948Z,68.4
2017-07-24T04:14:22.344Z,68.4
2017-07-24T04:15:24.385Z,68.3
2017-07-24T04:16:26.460Z,68.4
2017-07-24T04:17:28.505Z,68.4
2017-07-24T04:18:30.555Z,68.5
2017-07-24T04:19:32.954Z,68.5
2017-07-24T04:20:35.009Z,68.5
2017-07-24T04:21:37.400Z,68.5
2017-07-24T04:22:39.443Z,68.6
2017-07-24T04:23:41.522Z,68.5
2017-07-24T04:24:43.942Z,68.5
2017-07-24T04:25:47.007Z,68.5
2017-07-24T04:26:49.394Z,68.4
2017-07-24T04:27:51.459Z,68.5
2017-07-24T04:28:53.509Z,68.4
2017-07-24T04:29:55.910Z,68.5
2017-07-24T04:30:58.287Z,68.5
2017-07-24T04:32:00.683Z,68.4
2017-07-24T04:33:02.738Z,68.5
2017-07-24T04:34:05.121Z,68.5
2017-07-24T04:35:07.846Z,68.5
2017-07-24T04:36:09.888Z,68.5
2017-07-24T04:37:12.616Z,68.4
2017-07-24T04:38:15.019Z,68.5
2017-07-24T04:39:17.415Z,68.5
2017-07-24T04:40:19.482Z,68.5
2017-07-24T04:41:21.520Z,68.4
2017-07-24T04:42:23.578Z,68.4
2017-07-24T04:43:25.672Z,68.5
2017-07-24T04:44:28.054Z,68.5
2017-07-24T04:45:30.101Z,68.4
2017-07-24T04:46:32.486Z,68.4
2017-07-24T04:47:34.531Z,68.5
2017-07-24T04:48:37.279Z,68.4
2017-07-24T04:49:39.316Z,68.5
2017-07-24T04:50:41.369Z,68.5
2017-07-24T04:51:43.760Z,68.4
2017-07-24T04:52:46.147Z,68.4
2017-07-24T04:53:48.204Z,68.4
2017-07-24T04:54:50.260Z,68.4
2017-07-24T04:55:52.320Z,68.4
2017-07-24T04:56:54.371Z,68.4
2017-07-24T04:57:56.427Z,68.3
2017-07-24T04:58:58.492Z,68.5
2017-07-24T05:00:01.226Z,68.3
2017-07-24T05:01:03.275Z,68.5
2017-07-24T05:02:05.668Z,68.5
2017-07-24T05:03:07.876Z,68.5
2017-07-24T05:04:10.617Z,68.5
2017-07-24T05:05:12.988Z,68.5
2017-07-24T05:06:15.511Z,68.5
2017-07-24T05:07:18.381Z,68.4
2017-07-24T05:08:20.774Z,68.4
2017-07-24T05:09:22.837Z,68.3
2017-07-24T05:10:25.622Z,68.4
2017-07-24T05:11:29.951Z,68.3
2017-07-24T05:12:33.968Z,68.4
2017-07-24T05:13:37.275Z,68.3
2017-07-24T05:14:40.887Z,68.3
2017-07-24T05:15:42.939Z,68.3
2017-07-24T05:16:45.004Z,68.4
2017-07-24T05:17:47.057Z,68.3
2017-07-24T05:18:49.119Z,68.3
2017-07-24T05:19:51.167Z,68.2
2017-07-24T05:20:53.540Z,68.4
2017-07-24T05:21:55.615Z,68.4
2017-07-24T05:22:57.668Z,68.5
2017-07-24T05:23:59.722Z,68.4
2017-07-24T05:25:02.133Z,68.3
2017-07-24T05:26:04.866Z,68.4
2017-07-24T05:27:06.930Z,68.3
2017-07-24T05:28:08.978Z,68.2
2017-07-24T05:29:11.381Z,68
2017-07-24T05:30:13.446Z,68.1
2017-07-24T05:31:15.518Z,68
2017-07-24T05:32:17.602Z,68
2017-07-24T05:33:19.994Z,67.9
2017-07-24T05:34:22.062Z,67.9
2017-07-24T05:35:24.449Z,67.9
2017-07-24T05:36:26.497Z,67.9
2017-07-24T05:37:28.542Z,67.9
2017-07-24T05:38:30.618Z,67.9
2017-07-24T05:39:32.663Z,67.8
2017-07-24T05:40:34.720Z,67.8
2017-07-24T05:41:36.766Z,67.7
2017-07-24T05:42:38.817Z,67.6
2017-07-24T05:43:40.870Z,67.6
2017-07-24T05:44:42.921Z,67.6
2017-07-24T05:45:44.991Z,67.5
2017-07-24T05:46:47.406Z,67.5
2017-07-24T05:47:50.119Z,67.4
2017-07-24T05:48:52.860Z,67.4
2017-07-24T05:49:54.911Z,67.2
2017-07-24T05:50:56.965Z,67.2
2017-07-24T05:52:02.171Z,67.2
2017-07-24T05:53:08.756Z,67.1
2017-07-24T05:54:10.816Z,67.1
2017-07-24T05:55:12.876Z,67.1
2017-07-24T05:56:14.937Z,67
2017-07-24T05:57:16.995Z,67
2017-07-24T05:58:19.057Z,67
2017-07-24T05:59:21.113Z,67
2017-07-24T06:00:23.522Z,67
2017-07-24T06:01:25.949Z,67.1
2017-07-24T06:02:28.025Z,67
2017-07-24T06:03:30.176Z,67
2017-07-24T06:04:32.563Z,67
2017-07-24T06:05:34.960Z,67
2017-07-24T06:06:37.020Z,66.9
2017-07-24T06:07:39.070Z,66.9
2017-07-24T06:08:41.138Z,67
2017-07-24T06:09:43.544Z,67
2017-07-24T06:10:45.938Z,66.9
2017-07-24T06:11:48.331Z,66.8
2017-07-24T06:12:50.394Z,66.8
2017-07-24T06:13:52.438Z,66.8
2017-07-24T06:14:54.853Z,66.7
2017-07-24T06:15:56.929Z,66.6
2017-07-24T06:16:59.316Z,66.5
2017-07-24T06:18:01.712Z,66.6
2017-07-24T06:19:04.116Z,66.6
2017-07-24T06:20:06.167Z,66.5
2017-07-24T06:21:08.230Z,66.4
2017-07-24T06:22:10.283Z,66.4
2017-07-24T06:23:13.023Z,66.4
2017-07-24T06:24:15.409Z,66.4
2017-07-24T06:25:17.462Z,66.3
2017-07-24T06:26:19.869Z,66.3
2017-07-24T06:27:21.921Z,66.3
2017-07-24T06:28:23.967Z,66.2
2017-07-24T06:29:26.365Z,66.2
2017-07-24T06:30:28.424Z,66.2
2017-07-24T06:31:30.488Z,66.1
2017-07-24T06:32:32.544Z,66.1
2017-07-24T06:33:34.950Z,66
2017-07-24T06:34:37.018Z,66.1
2017-07-24T06:35:39.730Z,66
2017-07-24T06:36:41.805Z,66
2017-07-24T06:37:44.205Z,66.1
2017-07-24T06:38:46.262Z,66.1
2017-07-24T06:39:48.657Z,66.2
2017-07-24T06:40:50.711Z,66.3
2017-07-24T06:41:52.793Z,66.2
2017-07-24T06:42:54.863Z,66.1
2017-07-24T06:43:56.950Z,66.2
2017-07-24T06:44:58.987Z,66.1
2017-07-24T06:46:01.056Z,66
2017-07-24T06:47:03.131Z,66
2017-07-24T06:48:05.868Z,65.9
2017-07-24T06:49:07.921Z,66
2017-07-24T06:50:09.978Z,65.8
2017-07-24T06:51:12.055Z,65.7
2017-07-24T06:52:14.106Z,65.6
2017-07-24T06:53:16.152Z,65.6
2017-07-24T06:54:18.219Z,65.6
2017-07-24T06:55:20.618Z,65.7
2017-07-24T06:56:23.012Z,65.5
2017-07-24T06:57:25.101Z,65.3
2017-07-24T06:58:27.516Z,65.3
2017-07-24T06:59:29.579Z,65.4
2017-07-24T07:00:31.639Z,65.5
2017-07-24T07:01:33.693Z,65.6
2017-07-24T07:02:35.748Z,65.7
2017-07-24T07:03:37.824Z,65.7
2017-07-24T07:04:40.216Z,65.7
2017-07-24T07:05:42.275Z,65.8
2017-07-24T07:06:44.348Z,65.8
2017-07-24T07:07:46.743Z,65.8
2017-07-24T07:08:48.794Z,65.8
2017-07-24T07:09:51.190Z,65.8
2017-07-24T07:10:53.257Z,65.7
2017-07-24T07:11:55.656Z,65.5
2017-07-24T07:12:57.711Z,65.4
2017-07-24T07:14:00.120Z,65.3
2017-07-24T07:15:02.520Z,65.5
2017-07-24T07:16:04.564Z,65.4
2017-07-24T07:17:06.620Z,65.5
2017-07-24T07:18:08.688Z,65.5
2017-07-24T07:19:11.095Z,65.5
2017-07-24T07:20:13.492Z,65.5
2017-07-24T07:21:15.890Z,65.6
2017-07-24T07:22:17.944Z,65.7
2017-07-24T07:23:20.008Z,65.6
2017-07-24T07:24:22.070Z,65.8
2017-07-24T07:25:24.117Z,65.7
2017-07-24T07:26:26.199Z,65.8
2017-07-24T07:27:28.253Z,65.7
2017-07-24T07:28:30.650Z,65.7
2017-07-24T07:29:32.712Z,65.6
2017-07-24T07:30:34.770Z,65.5
2017-07-24T07:31:37.200Z,65.4
2017-07-24T07:32:39.595Z,65.4
2017-07-24T07:33:42.007Z,65.4
2017-07-24T07:34:44.074Z,65.5
2017-07-24T07:35:46.125Z,65.3
2017-07-24T07:36:48.176Z,65.1
2017-07-24T07:37:50.236Z,65.2
2017-07-24T07:38:52.294Z,65.1
2017-07-24T07:39:54.371Z,65.2
2017-07-24T07:40:56.794Z,65.2
2017-07-24T07:41:58.868Z,65.1
2017-07-24T07:43:00.934Z,65
2017-07-24T07:44:03.322Z,65
2017-07-24T07:45:05.390Z,65
2017-07-24T07:46:08.463Z,64.9
2017-07-24T07:47:10.896Z,64.9
2017-07-24T07:48:13.669Z,65
2017-07-24T07:49:16.059Z,65
2017-07-24T07:50:18.463Z,65.1
2017-07-24T07:51:20.509Z,65.1
2017-07-24T07:52:22.906Z,64.9
2017-07-24T07:53:24.981Z,64.9
2017-07-24T07:54:27.039Z,64.7
2017-07-24T07:55:29.100Z,64.7
2017-07-24T07:56:31.164Z,64.7
2017-07-24T07:57:33.220Z,64.7
2017-07-24T07:58:35.282Z,64.7
2017-07-24T07:59:37.339Z,64.7
2017-07-24T08:00:39.430Z,64.7
2017-07-24T08:01:41.951Z,64.5
2017-07-24T08:02:44.006Z,64.3
2017-07-24T08:03:46.065Z,64.1
2017-07-24T08:04:48.463Z,64.1
2017-07-24T08:05:50.525Z,64.1
2017-07-24T08:06:52.943Z,64.1
2017-07-24T08:07:55.683Z,64.1
2017-07-24T08:08:57.737Z,64
2017-07-24T08:09:59.799Z,64.1
2017-07-24T08:11:02.215Z,64.1
2017-07-24T08:12:04.279Z,64.1
2017-07-24T08:13:06.671Z,64
2017-07-24T08:14:09.072Z,64
2017-07-24T08:15:11.140Z,64.1
2017-07-24T08:16:13.545Z,64.1
2017-07-24T08:17:15.957Z,63.9
2017-07-24T08:18:18.367Z,63.9
2017-07-24T08:19:20.431Z,63.7
2017-07-24T08:20:22.493Z,63.7
2017-07-24T08:21:24.568Z,63.7
2017-07-24T08:22:26.635Z,63.7
2017-07-24T08:23:29.044Z,63.6
2017-07-24T08:24:31.101Z,63.7
2017-07-24T08:25:33.521Z,63.5
2017-07-24T08:26:35.932Z,63.2
2017-07-24T08:27:37.992Z,63.1
2017-07-24T08:28:40.057Z,63.2
2017-07-24T08:29:42.110Z,63.2
2017-07-24T08:30:44.174Z,63.2
2017-07-24T08:31:46.224Z,63.2
2017-07-24T08:32:48.280Z,63.2
2017-07-24T08:33:50.358Z,63
2017-07-24T08:34:52.751Z,63
2017-07-24T08:35:54.804Z,62.9
2017-07-24T08:36:56.865Z,62.8
2017-07-24T08:37:59.264Z,62.8
2017-07-24T08:39:01.661Z,62.9
2017-07-24T08:40:03.724Z,62.8
2017-07-24T08:41:05.787Z,62.8
2017-07-24T08:42:07.857Z,62.7
2017-07-24T08:43:09.917Z,62.7
2017-07-24T08:44:11.985Z,62.6
2017-07-24T08:45:14.054Z,62.4
2017-07-24T08:46:16.809Z,62.3
2017-07-24T08:47:18.874Z,62.3
2017-07-24T08:48:20.947Z,62.1
2017-07-24T08:49:23.006Z,62.1
2017-07-24T08:50:25.419Z,62.1
2017-07-24T08:51:27.478Z,62.1
2017-07-24T08:52:29.872Z,61.9
2017-07-24T08:53:32.280Z,61.7
2017-07-24T08:54:35.017Z,61.6
2017-07-24T08:55:37.092Z,61.3
2017-07-24T08:56:39.825Z,61.4
2017-07-24T08:57:42.568Z,61.3
2017-07-24T08:58:44.623Z,61.2
2017-07-24T08:59:46.672Z,60.9
2017-07-24T09:00:48.761Z,60.8
2017-07-24T09:01:50.826Z,60.8
2017-07-24T09:02:52.890Z,60.7
2017-07-24T09:03:54.964Z,60.5
2017-07-24T09:04:57.358Z,60.4
2017-07-24T09:05:59.785Z,60.1
2017-07-24T09:07:02.209Z,60.2
2017-07-24T09:08:04.274Z,60.3
2017-07-24T09:09:06.688Z,60.3
2017-07-24T09:10:08.751Z,60.3
2017-07-24T09:11:11.151Z,60.3
2017-07-24T09:12:13.551Z,60.2
2017-07-24T09:13:15.604Z,60.1
2017-07-24T09:14:18.353Z,60.2
2017-07-24T09:15:20.410Z,60.3
2017-07-24T09:16:22.818Z,60.4
2017-07-24T09:17:24.887Z,60.4
2017-07-24T09:18:26.939Z,60.4
2017-07-24T09:19:29.355Z,60.3
2017-07-24T09:20:31.420Z,60.4
2017-07-24T09:21:33.483Z,60.3
2017-07-24T09:22:35.548Z,60.3
2017-07-24T09:23:37.617Z,60.3
2017-07-24T09:24:39.703Z,60.1
2017-07-24T09:25:41.781Z,60
2017-07-24T09:26:43.855Z,60
2017-07-24T09:27:46.256Z,59.8
2017-07-24T09:28:48.324Z,59.6
2017-07-24T09:29:50.390Z,59.6
2017-07-24T09:30:52.487Z,59.4
2017-07-24T09:31:54.917Z,59.2
2017-07-24T09:32:57.661Z,59.2
2017-07-24T09:33:59.737Z,59.1
2017-07-24T09:35:01.833Z,59.1
2017-07-24T09:36:04.605Z,59.1
2017-07-24T09:37:06.670Z,59.2
2017-07-24T09:38:09.079Z,59.3
2017-07-24T09:39:12.173Z,59.4
2017-07-24T09:40:14.231Z,59.3
2017-07-24T09:41:16.644Z,59.3
2017-07-24T09:42:18.713Z,59.3
2017-07-24T09:43:20.787Z,59.2
2017-07-24T09:44:23.184Z,59.3
2017-07-24T09:45:25.255Z,59.2
2017-07-24T09:46:27.312Z,59
2017-07-24T09:47:29.378Z,59
2017-07-24T09:48:31.788Z,59
2017-07-24T09:49:33.881Z,58.9
2017-07-24T09:50:36.293Z,58.8
2017-07-24T09:51:38.356Z,58.7
2017-07-24T09:52:40.425Z,58.4
2017-07-24T09:53:42.498Z,58.5
2017-07-24T09:54:44.905Z,58.7
2017-07-24T09:55:46.968Z,58.8
2017-07-24T09:56:49.045Z,58.8
2017-07-24T09:57:51.118Z,59
2017-07-24T09:58:53.559Z,59
2017-07-24T09:59:55.969Z,58.7
2017-07-24T10:00:58.056Z,58.5
2017-07-24T10:02:00.138Z,58.1
2017-07-24T10:03:02.200Z,57.8
2017-07-24T10:04:04.619Z,57.6
2017-07-24T10:05:07.082Z,57.5
2017-07-24T10:06:09.155Z,57.8
2017-07-24T10:07:11.231Z,58
2017-07-24T10:08:13.650Z,58.2
2017-07-24T10:09:16.072Z,58.3
2017-07-24T10:10:18.141Z,58.3
2017-07-24T10:11:20.213Z,58.3
2017-07-24T10:12:22.643Z,58.3
2017-07-24T10:13:24.696Z,58.1
2017-07-24T10:14:26.768Z,57.9
2017-07-24T10:15:28.855Z,57.6
2017-07-24T10:16:31.280Z,57.1
2017-07-24T10:17:33.355Z,56.6
2017-07-24T10:18:35.793Z,56.5
2017-07-24T10:19:38.231Z,56.8
2017-07-24T10:20:40.311Z,57
2017-07-24T10:21:42.378Z,57
2017-07-24T10:22:44.476Z,56.9
2017-07-24T10:23:46.544Z,56.5
2017-07-24T10:24:48.608Z,56.1
2017-07-24T10:25:51.017Z,56.3
2017-07-24T10:26:53.089Z,56
2017-07-24T10:27:55.538Z,55.5
2017-07-24T10:28:57.966Z,55.2
2017-07-24T10:30:00.377Z,55
2017-07-24T10:31:02.804Z,54.8
2017-07-24T10:32:04.879Z,54.7
2017-07-24T10:33:06.961Z,54.5
2017-07-24T10:34:09.372Z,54.4
2017-07-24T10:35:11.435Z,54.4
2017-07-24T10:36:13.861Z,54.4
2017-07-24T10:37:15.943Z,54.4
2017-07-24T10:38:18.023Z,54.4
2017-07-24T10:39:20.086Z,54.5
2017-07-24T10:40:22.156Z,54.4
2017-07-24T10:41:24.243Z,54.8
2017-07-24T10:42:26.655Z,55.4
2017-07-24T10:43:28.737Z,55.9
2017-07-24T10:44:31.202Z,56.1
2017-07-24T10:45:33.606Z,56.3
2017-07-24T10:46:36.016Z,56.2
2017-07-24T10:47:38.084Z,56.1
2017-07-24T10:48:40.156Z,56
2017-07-24T10:49:42.234Z,56
2017-07-24T10:50:44.305Z,56
2017-07-24T10:51:46.722Z,55.8
2017-07-24T10:52:49.136Z,55.6
2017-07-24T10:53:51.203Z,55.4
2017-07-24T10:54:53.277Z,55.2
2017-07-24T10:55:56.382Z,55.3
2017-07-24T10:56:58.804Z,54.8
2017-07-24T10:58:00.871Z,54.4
2017-07-24T10:59:02.949Z,54.3
2017-07-24T11:00:05.371Z,54.2
2017-07-24T11:01:07.445Z,54
2017-07-24T11:02:10.224Z,54
2017-07-24T11:03:12.313Z,54
2017-07-24T11:04:14.730Z,54
2017-07-24T11:05:17.147Z,53.9
2017-07-24T11:06:19.221Z,53.6
2017-07-24T11:07:21.992Z,53.4
2017-07-24T11:08:24.743Z,53.4
2017-07-24T11:09:26.821Z,53.3
2017-07-24T11:10:29.228Z,53.2
2017-07-24T11:11:31.319Z,53
2017-07-24T11:12:33.402Z,53
2017-07-24T11:13:35.843Z,52.7
2017-07-24T11:14:38.271Z,52.2
2017-07-24T11:15:40.341Z,52
2017-07-24T11:16:42.409Z,51.6
2017-07-24T11:17:44.513Z,51.4
2017-07-24T11:18:46.580Z,51.2
2017-07-24T11:19:48.707Z,51.1
2017-07-24T11:20:50.811Z,51
2017-07-24T11:21:52.886Z,51.1
2017-07-24T11:22:54.953Z,51
2017-07-24T11:23:57.022Z,51
2017-07-24T11:24:59.114Z,51.1
2017-07-24T11:26:01.202Z,51.1
2017-07-24T11:27:03.258Z,51
2017-07-24T11:28:05.682Z,51.1
2017-07-24T11:29:08.086Z,51
2017-07-24T11:30:10.163Z,51
2017-07-24T11:31:12.592Z,51.1
2017-07-24T11:32:14.663Z,51.2
2017-07-24T11:33:16.737Z,51.2
2017-07-24T11:34:19.142Z,51.3
2017-07-24T11:35:21.202Z,51.4
2017-07-24T11:36:23.290Z,51.6
2017-07-24T11:37:25.344Z,51.6
2017-07-24T11:38:27.418Z,51.7
2017-07-24T11:39:29.489Z,51.7
2017-07-24T11:40:31.562Z,51.8
2017-07-24T11:41:33.629Z,51.9
2017-07-24T11:42:35.695Z,51.9
2017-07-24T11:43:37.775Z,52
2017-07-24T11:44:39.852Z,52.1
2017-07-24T11:45:41.917Z,52.2
2017-07-24T11:46:43.992Z,52.3
2017-07-24T11:47:46.433Z,52.3
2017-07-24T11:48:48.503Z,52.4
2017-07-24T11:49:50.603Z,52.5
2017-07-24T11:50:52.665Z,52.5
2017-07-24T11:51:54.720Z,52.5
2017-07-24T11:52:56.823Z,52.6
2017-07-24T11:53:58.888Z,52.6
2017-07-24T11:55:00.951Z,52.7
2017-07-24T11:56:03.362Z,52.7
2017-07-24T11:57:05.434Z,52.7
2017-07-24T11:58:07.552Z,52.7
2017-07-24T11:59:09.619Z,52.8
2017-07-24T12:00:12.389Z,52.8
2017-07-24T12:01:14.448Z,52.8
2017-07-24T12:02:16.508Z,52.8
2017-07-24T12:03:18.579Z,52.8
2017-07-24T12:04:20.985Z,52.7
2017-07-24T12:05:23.068Z,52.7
2017-07-24T12:06:25.138Z,52.7
2017-07-24T12:07:27.543Z,52.7
2017-07-24T12:08:29.629Z,52.8
2017-07-24T12:09:31.685Z,52.6
2017-07-24T12:10:34.434Z,52.5
2017-07-24T12:11:36.508Z,52.4
2017-07-24T12:12:38.570Z,52.2
2017-07-24T12:13:40.636Z,52.1
2017-07-24T12:14:42.700Z,51.9
2017-07-24T12:15:45.112Z,51.6
2017-07-24T12:16:47.200Z,51.5
2017-07-24T12:17:49.624Z,51.3
2017-07-24T12:18:52.395Z,51.2
2017-07-24T12:19:54.476Z,51.1
2017-07-24T12:20:56.550Z,51.1
2017-07-24T12:21:58.622Z,51.1
2017-07-24T12:23:00.707Z,51.1
2017-07-24T12:24:03.125Z,51
2017-07-24T12:25:05.186Z,50.9
2017-07-24T12:26:07.640Z,50.9
2017-07-24T12:27:09.719Z,50.9
2017-07-24T12:28:11.776Z,50.9
2017-07-24T12:29:13.853Z,50.8
2017-07-24T12:30:15.933Z,50.8
2017-07-24T12:31:18.020Z,50.9
2017-07-24T12:32:20.082Z,50.9
2017-07-24T12:33:22.156Z,51
2017-07-24T12:34:24.227Z,50.9
2017-07-24T12:35:26.625Z,51
2017-07-24T12:36:28.694Z,50.9
2017-07-24T12:37:30.772Z,51
2017-07-24T12:38:33.203Z,51
2017-07-24T12:39:35.275Z,50.9
2017-07-24T12:40:37.346Z,51
2017-07-24T12:41:39.437Z,51
2017-07-24T12:42:41.501Z,51.1
2017-07-24T12:43:43.572Z,51.1
2017-07-24T12:44:45.644Z,51.1
2017-07-24T12:45:48.077Z,51.1
2017-07-24T12:46:50.540Z,51.1
2017-07-24T12:47:52.602Z,51.2
2017-07-24T12:48:55.016Z,51.3
2017-07-24T12:49:57.119Z,51.3
2017-07-24T12:50:59.185Z,51.4
2017-07-24T12:52:01.245Z,51.6
2017-07-24T12:53:03.334Z,51.6
2017-07-24T12:54:05.765Z,51.7
2017-07-24T12:55:33.528Z,51.8
2017-07-24T12:56:35.631Z,51.8
2017-07-24T12:57:38.086Z,52
2017-07-24T12:58:40.543Z,52
2017-07-24T12:59:42.994Z,52.2
2017-07-24T13:00:45.119Z,52.3
2017-07-24T13:01:47.254Z,52.4
2017-07-24T13:02:49.370Z,52.5
2017-07-24T13:03:51.485Z,52.6
2017-07-24T13:04:53.924Z,52.8
2017-07-24T13:05:56.059Z,52.8
2017-07-24T13:06:58.518Z,52.9
2017-07-24T13:08:00.623Z,53
2017-07-24T13:09:03.078Z,53.1
2017-07-24T13:10:05.532Z,53.2
2017-07-24T13:11:07.997Z,53.3
2017-07-24T13:12:10.126Z,53.4
2017-07-24T13:13:12.221Z,53.5
2017-07-24T13:14:14.349Z,53.5
2017-07-24T13:15:16.448Z,53.6
2017-07-24T13:16:18.552Z,53.7
2017-07-24T13:17:21.026Z,53.8
2017-07-24T13:18:23.471Z,53.8
2017-07-24T13:19:25.588Z,53.9
2017-07-24T13:20:27.707Z,54
2017-07-24T13:21:30.484Z,53.9
2017-07-24T13:22:32.950Z,54
2017-07-24T13:23:35.051Z,54.1
2017-07-24T13:24:37.503Z,54.2
2017-07-24T13:25:39.980Z,54.3
2017-07-24T13:26:42.081Z,54.3
2017-07-24T13:27:44.194Z,54.4
2017-07-24T13:28:46.302Z,54.5
2017-07-24T13:29:48.412Z,54.4
2017-07-24T13:30:50.532Z,54.5
2017-07-24T13:31:52.637Z,54.5
2017-07-24T13:32:54.752Z,54.7
2017-07-24T13:33:57.209Z,54.8
2017-07-24T13:34:59.645Z,54.7
2017-07-24T13:36:02.093Z,54.8
2017-07-24T13:37:04.205Z,54.9
2017-07-24T13:38:06.664Z,54.8
2017-07-24T13:39:08.775Z,54.9
2017-07-24T13:40:10.870Z,54.9
2017-07-24T13:41:13.660Z,55
2017-07-24T13:42:15.812Z,55.1
2017-07-24T13:43:17.922Z,55.2
2017-07-24T13:44:20.429Z,55.2
2017-07-24T13:45:22.557Z,55.1
2017-07-24T13:46:24.658Z,55
2017-07-24T13:47:26.783Z,55.1
2017-07-24T13:48:28.887Z,55
2017-07-24T13:49:31.009Z,54.9
2017-07-24T13:50:33.669Z,54.8
2017-07-24T13:51:36.487Z,54.8
2017-07-24T13:52:38.600Z,54.8
2017-07-24T13:53:41.049Z,54.8
2017-07-24T13:54:43.513Z,54.9